KBML/BML METAR and TAF weather

Enter ICAO airport designator
Station Type Date Time Source
KBML METAR 2018/04/23 10:52 UTC NOAA

KBML 231052Z AUTO 00000KT 10SM CLR M04/M06 A3046 RMK AO2 SLP326 T10391056 $


Station Type Date Time Source
KBML Decoded METAR 2018/04/23 10:52 UTC NOAA

BERLIN MUNICIPAL AIRPORT, NH, United States (KBML) 44-35N 71-11W 345M
Apr 23, 2018 - 06:52 AM EDT / 2018.04.23 1052 UTC
Wind: Calm:0
Visibility: 10 mile(s):0
Sky conditions: clear
Temperature: 25.0 F (-3.9 C)
Dew Point: 21.9 F (-5.6 C)
Relative Humidity: 87%
Pressure (altimeter): 30.46 in. Hg (1031 hPa)
ob: KBML 231052Z AUTO 00000KT 10SM CLR M04/M06 A3046 RMK AO2 SLP326 T10391056
cycle: 11

Station Type Date Time Source
KBML TAF UTC NOAA

Error!


Example: see airport list